sensor_id;sensor_type;location;lat;lon;timestamp;P1;P2;P0
65556;PMS3003;52200;53.490;14.376;2023-03-01T00:01:10;101.25;69.00;40.50
65556;PMS3003;52200;53.490;14.376;2023-03-01T00:03:38;102.75;73.75;42.00
65556;PMS3003;52200;53.490;14.376;2023-03-01T00:06:03;100.00;68.00;39.67
65556;PMS3003;52200;53.490;14.376;2023-03-01T00:08:29;95.00;67.25;39.50
65556;PMS3003;52200;53.490;14.376;2023-03-01T00:13:43;94.75;66.75;38.75
65556;PMS3003;52200;53.490;14.376;2023-03-01T00:16:12;84.50;63.25;36.75
65556;PMS3003;52200;53.490;14.376;2023-03-01T00:18:39;86.00;62.75;35.75
65556;PMS3003;52200;53.490;14.376;2023-03-01T00:21:05;80.80;58.60;32.00
65556;PMS3003;52200;53.490;14.376;2023-03-01T00:23:31;78.50;54.00;31.75
65556;PMS3003;52200;53.490;14.376;2023-03-01T00:25:59;78.00;54.00;30.20
65556;PMS3003;52200;53.490;14.376;2023-03-01T00:28:24;69.50;52.00;28.00
65556;PMS3003;52200;53.490;14.376;2023-03-01T00:30:50;72.50;52.50;30.00
65556;PMS3003;52200;53.490;14.376;2023-03-01T00:33:15;69.75;53.00;30.50
65556;PMS3003;52200;53.490;14.376;2023-03-01T00:35:40;66.75;49.75;28.50
65556;PMS3003;52200;53.490;14.376;2023-03-01T00:38:06;69.50;48.50;24.75
65556;PMS3003;52200;53.490;14.376;2023-03-01T00:40:33;62.00;41.50;20.75
65556;PMS3003;52200;53.490;14.376;2023-03-01T00:42:59;57.60;36.60;21.80
65556;PMS3003;52200;53.490;14.376;2023-03-01T00:45:25;68.50;49.75;26.75
65556;PMS3003;52200;53.490;14.376;2023-03-01T00:47:51;63.20;49.00;27.40
65556;PMS3003;52200;53.490;14.376;2023-03-01T00:50:17;72.25;52.75;27.50
65556;PMS3003;52200;53.490;14.376;2023-03-01T00:52:43;66.00;49.60;26.40
65556;PMS3003;52200;53.490;14.376;2023-03-01T00:55:09;63.50;47.00;27.75
65556;PMS3003;52200;53.490;14.376;2023-03-01T00:57:35;66.80;48.60;27.60
65556;PMS3003;52200;53.490;14.376;2023-03-01T01:00:00;63.50;46.00;28.25
65556;PMS3003;52200;53.490;14.376;2023-03-01T01:02:26;63.75;49.50;25.00
65556;PMS3003;52200;53.490;14.376;2023-03-01T01:04:51;63.75;48.50;24.25
65556;PMS3003;52200;53.490;14.376;2023-03-01T01:07:17;78.25;49.25;24.00
65556;PMS3003;52200;53.490;14.376;2023-03-01T01:09:45;59.00;44.40;25.00
65556;PMS3003;52200;53.490;14.376;2023-03-01T01:12:10;63.20;46.20;26.00
65556;PMS3003;52200;53.490;14.376;2023-03-01T01:14:36;63.50;48.00;25.00
65556;PMS3003;52200;53.490;14.376;2023-03-01T01:17:01;63.25;46.00;23.25
65556;PMS3003;52200;53.490;14.376;2023-03-01T01:19:27;57.75;40.25;18.75
65556;PMS3003;52200;53.490;14.376;2023-03-01T01:21:53;47.80;35.80;19.00
65556;PMS3003;52200;53.490;14.376;2023-03-01T01:24:18;51.75;33.00;19.25
65556;PMS3003;52200;53.490;14.376;2023-03-01T01:26:44;47.60;33.60;18.60
65556;PMS3003;52200;53.490;14.376;2023-03-01T01:29:11;43.80;34.00;17.60
65556;PMS3003;52200;53.490;14.376;2023-03-01T01:31:38;36.60;29.40;16.40
65556;PMS3003;52200;53.490;14.376;2023-03-01T01:34:05;41.80;32.40;17.20
65556;PMS3003;52200;53.490;14.376;2023-03-01T01:36:32;46.00;30.20;15.80
65556;PMS3003;52200;53.490;14.376;2023-03-01T01:38:58;39.00;29.40;17.20
65556;PMS3003;52200;53.490;14.376;2023-03-01T01:41:24;38.00;29.00;15.50
65556;PMS3003;52200;53.490;14.376;2023-03-01T01:46:42;48.60;36.80;18.60
65556;PMS3003;52200;53.490;14.376;2023-03-01T01:51:44;51.20;32.80;19.80
65556;PMS3003;52200;53.490;14.376;2023-03-01T01:54:48;47.60;30.80;16.60
65556;PMS3003;52200;53.490;14.376;2023-03-01T01:57:09;47.60;34.20;18.20
65556;PMS3003;52200;53.490;14.376;2023-03-01T01:59:39;42.40;33.00;18.00
65556;PMS3003;52200;53.490;14.376;2023-03-01T02:02:08;46.60;37.00;19.80
65556;PMS3003;52200;53.490;14.376;2023-03-01T02:04:34;49.20;38.40;19.00
65556;PMS3003;52200;53.490;14.376;2023-03-01T02:09:39;45.40;36.40;20.00
65556;PMS3003;52200;53.490;14.376;2023-03-01T02:12:09;52.80;40.20;21.20
65556;PMS3003;52200;53.490;14.376;2023-03-01T02:14:34;46.00;36.25;19.25
65556;PMS3003;52200;53.490;14.376;2023-03-01T02:17:00;49.00;36.25;19.25
65556;PMS3003;52200;53.490;14.376;2023-03-01T02:19:28;53.25;38.25;22.25
65556;PMS3003;52200;53.490;14.376;2023-03-01T02:22:24;40.20;30.60;19.60
65556;PMS3003;52200;53.490;14.376;2023-03-01T02:27:36;55.80;47.80;24.20
65556;PMS3003;52200;53.490;14.376;2023-03-01T02:30:06;64.40;46.20;25.40
65556;PMS3003;52200;53.490;14.376;2023-03-01T02:32:32;55.60;42.20;21.80
65556;PMS3003;52200;53.490;14.376;2023-03-01T02:34:59;60.00;44.00;24.00
65556;PMS3003;52200;53.490;14.376;2023-03-01T02:37:24;55.80;38.40;22.20
65556;PMS3003;52200;53.490;14.376;2023-03-01T02:39:58;53.00;43.20;21.80
65556;PMS3003;52200;53.490;14.376;2023-03-01T02:42:31;53.40;35.40;20.40
65556;PMS3003;52200;53.490;14.376;2023-03-01T02:45:02;55.20;40.40;22.00
65556;PMS3003;52200;53.490;14.376;2023-03-01T02:47:28;62.00;41.20;23.00
65556;PMS3003;52200;53.490;14.376;2023-03-01T02:49:53;57.75;40.50;21.00
65556;PMS3003;52200;53.490;14.376;2023-03-01T02:52:23;55.75;40.50;22.00
65556;PMS3003;52200;53.490;14.376;2023-03-01T02:55:07;56.20;38.00;20.80
65556;PMS3003;52200;53.490;14.376;2023-03-01T02:57:35;53.20;45.40;24.80
65556;PMS3003;52200;53.490;14.376;2023-03-01T03:00:07;57.20;39.00;21.80
65556;PMS3003;52200;53.490;14.376;2023-03-01T03:02:44;48.80;36.80;20.00
65556;PMS3003;52200;53.490;14.376;2023-03-01T03:07:50;54.60;39.00;23.60
65556;PMS3003;52200;53.490;14.376;2023-03-01T03:10:25;63.50;42.00;24.50
65556;PMS3003;52200;53.490;14.376;2023-03-01T03:12:57;63.80;45.00;24.40
65556;PMS3003;52200;53.490;14.376;2023-03-01T03:15:25;63.80;48.80;26.60
65556;PMS3003;52200;53.490;14.376;2023-03-01T03:17:51;60.60;40.40;23.40
65556;PMS3003;52200;53.490;14.376;2023-03-01T03:20:19;61.20;43.60;26.00
65556;PMS3003;52200;53.490;14.376;2023-03-01T03:22:47;63.60;50.40;22.00
65556;PMS3003;52200;53.490;14.376;2023-03-01T03:25:14;57.60;46.00;24.80
65556;PMS3003;52200;53.490;14.376;2023-03-01T03:27:41;74.20;54.20;30.00
65556;PMS3003;52200;53.490;14.376;2023-03-01T03:30:09;69.20;50.80;26.00
65556;PMS3003;52200;53.490;14.376;2023-03-01T03:32:41;74.40;51.40;27.80
65556;PMS3003;52200;53.490;14.376;2023-03-01T03:35:15;79.40;52.20;28.40
65556;PMS3003;52200;53.490;14.376;2023-03-01T03:37:41;75.25;51.50;25.75
65556;PMS3003;52200;53.490;14.376;2023-03-01T03:40:25;83.60;56.20;33.80
65556;PMS3003;52200;53.490;14.376;2023-03-01T03:42:53;82.20;57.20;32.40
65556;PMS3003;52200;53.490;14.376;2023-03-01T03:45:19;76.80;56.60;30.20
65556;PMS3003;52200;53.490;14.376;2023-03-01T03:47:45;68.75;51.00;26.50
65556;PMS3003;52200;53.490;14.376;2023-03-01T03:50:11;63.75;42.50;25.00
65556;PMS3003;52200;53.490;14.376;2023-03-01T03:52:38;51.20;38.20;21.20
65556;PMS3003;52200;53.490;14.376;2023-03-01T03:55:04;66.00;43.75;22.75
65556;PMS3003;52200;53.490;14.376;2023-03-01T03:57:36;58.60;41.20;22.40
65556;PMS3003;52200;53.490;14.376;2023-03-01T04:00:02;55.60;37.80;19.40
65556;PMS3003;52200;53.490;14.376;2023-03-01T04:02:30;57.40;39.60;20.40
65556;PMS3003;52200;53.490;14.376;2023-03-01T04:04:56;62.25;46.75;24.25
65556;PMS3003;52200;53.490;14.376;2023-03-01T04:07:21;53.50;41.50;24.00
65556;PMS3003;52200;53.490;14.376;2023-03-01T04:09:47;58.25;45.50;23.25
65556;PMS3003;52200;53.490;14.376;2023-03-01T04:12:12;54.50;39.50;23.50
65556;PMS3003;52200;53.490;14.376;2023-03-01T04:14:37;58.00;42.75;22.00
65556;PMS3003;52200;53.490;14.376;2023-03-01T04:17:03;64.50;42.50;20.50
65556;PMS3003;52200;53.490;14.376;2023-03-01T04:19:30;59.60;41.00;21.00
65556;PMS3003;52200;53.490;14.376;2023-03-01T04:22:01;55.20;36.80;21.00
65556;PMS3003;52200;53.490;14.376;2023-03-01T04:24:34;56.00;42.60;24.40
65556;PMS3003;52200;53.490;14.376;2023-03-01T04:27:00;48.80;37.40;17.40
65556;PMS3003;52200;53.490;14.376;2023-03-01T04:29:25;43.25;30.00;17.00
65556;PMS3003;52200;53.490;14.376;2023-03-01T04:31:51;49.00;33.00;17.50
65556;PMS3003;52200;53.490;14.376;2023-03-01T04:34:16;43.75;26.50;15.00
65556;PMS3003;52200;53.490;14.376;2023-03-01T04:36:41;35.50;29.00;14.50
65556;PMS3003;52200;53.490;14.376;2023-03-01T04:39:07;31.75;23.75;11.50
65556;PMS3003;52200;53.490;14.376;2023-03-01T04:41:37;32.40;24.20;15.00
65556;PMS3003;52200;53.490;14.376;2023-03-01T04:44:04;41.00;23.80;15.00
65556;PMS3003;52200;53.490;14.376;2023-03-01T04:46:30;45.00;30.60;16.40
65556;PMS3003;52200;53.490;14.376;2023-03-01T04:48:55;45.75;35.50;17.25
65556;PMS3003;52200;53.490;14.376;2023-03-01T04:51:20;45.75;35.50;18.75
65556;PMS3003;52200;53.490;14.376;2023-03-01T04:53:46;47.25;31.75;17.75
65556;PMS3003;52200;53.490;14.376;2023-03-01T04:56:12;60.00;38.75;22.75
65556;PMS3003;52200;53.490;14.376;2023-03-01T04:58:41;61.80;46.00;26.60
65556;PMS3003;52200;53.490;14.376;2023-03-01T05:01:14;72.80;53.00;29.00
65556;PMS3003;52200;53.490;14.376;2023-03-01T05:03:42;82.40;55.60;30.00
65556;PMS3003;52200;53.490;14.376;2023-03-01T05:06:09;72.80;50.00;28.80
65556;PMS3003;52200;53.490;14.376;2023-03-01T05:08:36;62.60;49.80;27.40
65556;PMS3003;52200;53.490;14.376;2023-03-01T05:11:02;68.20;50.00;28.00
65556;PMS3003;52200;53.490;14.376;2023-03-01T05:13:28;61.20;44.60;25.60
65556;PMS3003;52200;53.490;14.376;2023-03-01T05:18:20;43.20;35.80;22.40
65556;PMS3003;52200;53.490;14.376;2023-03-01T05:20:46;61.25;41.50;22.50
65556;PMS3003;52200;53.490;14.376;2023-03-01T05:23:12;53.80;40.80;23.80
65556;PMS3003;52200;53.490;14.376;2023-03-01T05:25:37;54.75;41.50;23.50
65556;PMS3003;52200;53.490;14.376;2023-03-01T05:28:05;59.40;42.00;22.80
65556;PMS3003;52200;53.490;14.376;2023-03-01T05:30:32;51.40;37.60;19.80
65556;PMS3003;52200;53.490;14.376;2023-03-01T05:32:58;52.20;38.20;20.00
65556;PMS3003;52200;53.490;14.376;2023-03-01T05:35:24;51.40;40.20;22.60
65556;PMS3003;52200;53.490;14.376;2023-03-01T05:37:50;58.00;43.00;23.75
65556;PMS3003;52200;53.490;14.376;2023-03-01T05:40:17;58.60;44.00;23.00
65556;PMS3003;52200;53.490;14.376;2023-03-01T05:42:44;66.80;46.20;25.60
65556;PMS3003;52200;53.490;14.376;2023-03-01T05:45:11;57.40;47.00;28.60
65556;PMS3003;52200;53.490;14.376;2023-03-01T05:47:39;56.80;44.80;25.80
65556;PMS3003;52200;53.490;14.376;2023-03-01T05:50:08;66.80;48.00;29.80
65556;PMS3003;52200;53.490;14.376;2023-03-01T05:52:35;61.80;41.80;25.20
65556;PMS3003;52200;53.490;14.376;2023-03-01T05:55:01;49.00;40.75;22.75
65556;PMS3003;52200;53.490;14.376;2023-03-01T05:57:27;57.75;42.75;25.75
65556;PMS3003;52200;53.490;14.376;2023-03-01T05:59:53;67.20;44.20;26.20
65556;PMS3003;52200;53.490;14.376;2023-03-01T06:02:18;58.25;39.50;24.75
65556;PMS3003;52200;53.490;14.376;2023-03-01T06:04:44;71.60;50.20;27.60
65556;PMS3003;52200;53.490;14.376;2023-03-01T06:07:10;63.25;49.75;26.50
65556;PMS3003;52200;53.490;14.376;2023-03-01T06:09:36;64.40;47.80;30.60
65556;PMS3003;52200;53.490;14.376;2023-03-01T06:12:01;66.75;52.25;30.25
65556;PMS3003;52200;53.490;14.376;2023-03-01T06:14:26;75.50;53.75;32.75
65556;PMS3003;52200;53.490;14.376;2023-03-01T06:16:52;75.50;53.75;31.00
65556;PMS3003;52200;53.490;14.376;2023-03-01T06:19:17;85.25;60.75;34.00
65556;PMS3003;52200;53.490;14.376;2023-03-01T06:21:43;81.00;57.25;34.50
65556;PMS3003;52200;53.490;14.376;2023-03-01T06:24:08;85.00;61.75;33.25
65556;PMS3003;52200;53.490;14.376;2023-03-01T06:26:34;86.00;58.75;36.25
65556;PMS3003;52200;53.490;14.376;2023-03-01T06:28:59;98.33;66.33;38.33
65556;PMS3003;52200;53.490;14.376;2023-03-01T06:31:24;108.67;79.67;45.67
65556;PMS3003;52200;53.490;14.376;2023-03-01T06:33:50;132.00;87.67;52.33
65556;PMS3003;52200;53.490;14.376;2023-03-01T06:36:15;119.00;85.00;50.67
65556;PMS3003;52200;53.490;14.376;2023-03-01T06:38:43;120.00;81.50;48.50
65556;PMS3003;52200;53.490;14.376;2023-03-01T06:41:09;104.67;73.00;45.00
65556;PMS3003;52200;53.490;14.376;2023-03-01T06:43:34;89.33;63.33;36.33
65556;PMS3003;52200;53.490;14.376;2023-03-01T06:45:59;75.00;54.50;33.50
65556;PMS3003;52200;53.490;14.376;2023-03-01T06:48:26;78.20;58.60;32.80
65556;PMS3003;52200;53.490;14.376;2023-03-01T06:50:51;85.25;56.75;33.75
65556;PMS3003;52200;53.490;14.376;2023-03-01T06:53:16;93.25;62.00;36.00
65556;PMS3003;52200;53.490;14.376;2023-03-01T06:55:41;83.00;57.75;36.50
65556;PMS3003;52200;53.490;14.376;2023-03-01T06:58:08;89.00;58.00;35.67
65556;PMS3003;52200;53.490;14.376;2023-03-01T07:00:34;91.00;65.00;38.50
65556;PMS3003;52200;53.490;14.376;2023-03-01T07:03:00;94.33;66.00;39.33
65556;PMS3003;52200;53.490;14.376;2023-03-01T07:05:27;100.25;72.25;42.00
65556;PMS3003;52200;53.490;14.376;2023-03-01T07:07:53;113.75;76.00;45.75
65556;PMS3003;52200;53.490;14.376;2023-03-01T07:10:20;114.25;81.50;50.50
65556;PMS3003;52200;53.490;14.376;2023-03-01T07:12:45;110.00;80.00;48.33
65556;PMS3003;52200;53.490;14.376;2023-03-01T07:15:11;111.25;80.50;47.50
65556;PMS3003;52200;53.490;14.376;2023-03-01T07:17:36;103.00;73.33;44.00
65556;PMS3003;52200;53.490;14.376;2023-03-01T07:20:02;101.00;70.00;42.33
65556;PMS3003;52200;53.490;14.376;2023-03-01T07:22:28;97.67;73.67;44.00
65556;PMS3003;52200;53.490;14.376;2023-03-01T07:24:53;98.00;71.33;43.33
65556;PMS3003;52200;53.490;14.376;2023-03-01T07:27:18;94.00;68.33;41.00
65556;PMS3003;52200;53.490;14.376;2023-03-01T07:29:43;100.67;73.33;42.67
65556;PMS3003;52200;53.490;14.376;2023-03-01T07:32:09;88.00;67.00;37.00
65556;PMS3003;52200;53.490;14.376;2023-03-01T07:34:35;78.25;59.50;35.00
65556;PMS3003;52200;53.490;14.376;2023-03-01T07:37:00;80.33;60.00;35.00
65556;PMS3003;52200;53.490;14.376;2023-03-01T07:39:26;76.50;55.00;33.00
65556;PMS3003;52200;53.490;14.376;2023-03-01T07:41:51;68.75;54.00;31.00
65556;PMS3003;52200;53.490;14.376;2023-03-01T07:44:17;65.00;48.75;29.50
65556;PMS3003;52200;53.490;14.376;2023-03-01T07:46:43;60.00;45.00;25.00
65556;PMS3003;52200;53.490;14.376;2023-03-01T07:49:09;48.40;38.40;24.00
65556;PMS3003;52200;53.490;14.376;2023-03-01T07:51:35;63.20;48.40;29.00
65556;PMS3003;52200;53.490;14.376;2023-03-01T07:54:00;70.25;51.75;31.00
65556;PMS3003;52200;53.490;14.376;2023-03-01T07:56:26;76.00;58.00;34.00
65556;PMS3003;52200;53.490;14.376;2023-03-01T07:58:51;80.33;56.00;34.67
65556;PMS3003;52200;53.490;14.376;2023-03-01T08:01:18;80.33;61.33;36.33
65556;PMS3003;52200;53.490;14.376;2023-03-01T08:03:45;76.00;58.00;35.50
65556;PMS3003;52200;53.490;14.376;2023-03-01T08:06:11;79.00;56.67;34.67
65556;PMS3003;52200;53.490;14.376;2023-03-01T08:08:39;74.40;57.00;31.60
65556;PMS3003;52200;53.490;14.376;2023-03-01T08:11:05;68.50;51.00;31.00
65556;PMS3003;52200;53.490;14.376;2023-03-01T08:13:32;64.80;46.00;28.40
65556;PMS3003;52200;53.490;14.376;2023-03-01T08:16:05;66.80;50.80;28.80
65556;PMS3003;52200;53.490;14.376;2023-03-01T08:18:32;64.20;43.40;25.20
65556;PMS3003;52200;53.490;14.376;2023-03-01T08:21:16;53.25;38.50;22.50
65556;PMS3003;52200;53.490;14.376;2023-03-01T08:23:42;25.80;17.60;9.60
65556;PMS3003;52200;53.490;14.376;2023-03-01T08:26:09;27.20;17.00;9.80
65556;PMS3003;52200;53.490;14.376;2023-03-01T08:28:43;22.40;14.00;7.60
65556;PMS3003;52200;53.490;14.376;2023-03-01T08:31:13;17.60;11.20;7.00
65556;PMS3003;52200;53.490;14.376;2023-03-01T08:33:44;20.40;10.60;5.40
65556;PMS3003;52200;53.490;14.376;2023-03-01T08:36:15;21.00;13.00;7.00
65556;PMS3003;52200;53.490;14.376;2023-03-01T08:38:41;18.80;10.00;5.00
65556;PMS3003;52200;53.490;14.376;2023-03-01T08:41:07;18.50;12.25;6.50
65556;PMS3003;52200;53.490;14.376;2023-03-01T08:43:32;21.25;14.50;7.00
65556;PMS3003;52200;53.490;14.376;2023-03-01T08:45:57;17.25;12.50;8.00
65556;PMS3003;52200;53.490;14.376;2023-03-01T08:48:23;16.00;10.25;5.00
65556;PMS3003;52200;53.490;14.376;2023-03-01T08:50:48;16.75;11.25;5.75
65556;PMS3003;52200;53.490;14.376;2023-03-01T08:53:14;22.75;12.50;7.00
65556;PMS3003;52200;53.490;14.376;2023-03-01T08:55:39;23.00;13.00;6.00
65556;PMS3003;52200;53.490;14.376;2023-03-01T08:58:04;17.00;12.75;5.50
65556;PMS3003;52200;53.490;14.376;2023-03-01T09:00:30;20.00;15.25;6.00
65556;PMS3003;52200;53.490;14.376;2023-03-01T09:02:55;19.75;9.00;5.00
65556;PMS3003;52200;53.490;14.376;2023-03-01T09:05:20;15.25;11.00;6.00
65556;PMS3003;52200;53.490;14.376;2023-03-01T09:07:46;20.75;13.25;5.00
65556;PMS3003;52200;53.490;14.376;2023-03-01T09:10:11;17.00;10.00;5.00
65556;PMS3003;52200;53.490;14.376;2023-03-01T09:12:36;18.00;10.00;5.00
65556;PMS3003;52200;53.490;14.376;2023-03-01T09:15:02;16.50;10.50;4.00
65556;PMS3003;52200;53.490;14.376;2023-03-01T09:17:28;14.20;9.80;4.60
65556;PMS3003;52200;53.490;14.376;2023-03-01T09:19:53;13.50;7.25;3.00
65556;PMS3003;52200;53.490;14.376;2023-03-01T09:22:18;12.25;7.00;3.00
65556;PMS3003;52200;53.490;14.376;2023-03-01T09:24:44;13.75;5.25;3.00
65556;PMS3003;52200;53.490;14.376;2023-03-01T09:27:09;15.00;9.75;5.00
65556;PMS3003;52200;53.490;14.376;2023-03-01T09:29:36;13.25;7.25;4.75
65556;PMS3003;52200;53.490;14.376;2023-03-01T09:32:01;15.00;10.00;5.20
65556;PMS3003;52200;53.490;14.376;2023-03-01T09:34:27;15.00;10.75;5.00
65556;PMS3003;52200;53.490;14.376;2023-03-01T09:36:52;17.00;10.50;4.00
65556;PMS3003;52200;53.490;14.376;2023-03-01T09:39:18;13.50;9.00;5.00
65556;PMS3003;52200;53.490;14.376;2023-03-01T09:44:31;15.20;9.40;5.40
65556;PMS3003;52200;53.490;14.376;2023-03-01T09:46:58;16.20;10.60;6.00
65556;PMS3003;52200;53.490;14.376;2023-03-01T09:49:25;18.00;12.20;6.80
65556;PMS3003;52200;53.490;14.376;2023-03-01T09:51:54;17.60;12.40;6.00
65556;PMS3003;52200;53.490;14.376;2023-03-01T09:54:25;18.40;11.00;5.20
65556;PMS3003;52200;53.490;14.376;2023-03-01T10:04:48;16.50;11.50;6.00
65556;PMS3003;52200;53.490;14.376;2023-03-01T10:07:27;18.80;11.80;6.00
65556;PMS3003;52200;53.490;14.376;2023-03-01T10:10:18;23.60;13.40;6.00
65556;PMS3003;52200;53.490;14.376;2023-03-01T10:12:52;15.80;9.40;5.00
65556;PMS3003;52200;53.490;14.376;2023-03-01T10:15:20;18.00;13.00;6.00
65556;PMS3003;52200;53.490;14.376;2023-03-01T10:18:00;20.60;12.80;6.00
65556;PMS3003;52200;53.490;14.376;2023-03-01T10:23:07;18.40;12.80;6.80
65556;PMS3003;52200;53.490;14.376;2023-03-01T10:30:49;15.00;11.00;6.25
65556;PMS3003;52200;53.490;14.376;2023-03-01T10:33:19;15.00;10.00;6.00
65556;PMS3003;52200;53.490;14.376;2023-03-01T10:35:48;19.40;12.40;6.60
65556;PMS3003;52200;53.490;14.376;2023-03-01T10:38:14;16.75;11.00;7.25
65556;PMS3003;52200;53.490;14.376;2023-03-01T10:43:24;21.60;15.00;7.60
65556;PMS3003;52200;53.490;14.376;2023-03-01T10:45:51;18.40;12.40;6.80
65556;PMS3003;52200;53.490;14.376;2023-03-01T10:48:18;19.80;15.00;7.00
65556;PMS3003;52200;53.490;14.376;2023-03-01T10:50:49;21.40;13.80;6.80
65556;PMS3003;52200;53.490;14.376;2023-03-01T10:53:33;18.60;13.00;7.00
65556;PMS3003;52200;53.490;14.376;2023-03-01T10:58:29;20.00;12.40;7.40
65556;PMS3003;52200;53.490;14.376;2023-03-01T11:00:59;19.20;12.40;7.00
65556;PMS3003;52200;53.490;14.376;2023-03-01T11:03:34;17.00;11.80;7.00
65556;PMS3003;52200;53.490;14.376;2023-03-01T11:08:41;18.00;11.80;6.00
65556;PMS3003;52200;53.490;14.376;2023-03-01T11:14:27;19.20;12.80;7.00
65556;PMS3003;52200;53.490;14.376;2023-03-01T11:16:44;20.40;12.20;6.00
65556;PMS3003;52200;53.490;14.376;2023-03-01T11:22:11;13.00;8.75;6.00
65556;PMS3003;52200;53.490;14.376;2023-03-01T11:24:46;19.80;14.40;6.60
65556;PMS3003;52200;53.490;14.376;2023-03-01T11:27:34;21.20;11.00;6.40
65556;PMS3003;52200;53.490;14.376;2023-03-01T11:32:35;18.75;13.50;7.00
65556;PMS3003;52200;53.490;14.376;2023-03-01T11:35:10;18.00;13.20;7.00
65556;PMS3003;52200;53.490;14.376;2023-03-01T11:50:59;16.40;10.20;6.20
65556;PMS3003;52200;53.490;14.376;2023-03-01T11:56:28;19.00;13.00;7.00
65556;PMS3003;52200;53.490;14.376;2023-03-01T11:59:06;22.40;14.80;7.00
65556;PMS3003;52200;53.490;14.376;2023-03-01T12:01:46;19.40;13.40;7.20
65556;PMS3003;52200;53.490;14.376;2023-03-01T12:12:27;19.20;13.00;7.60
65556;PMS3003;52200;53.490;14.376;2023-03-01T12:20:58;20.00;15.40;8.20
65556;PMS3003;52200;53.490;14.376;2023-03-01T12:45:34;21.80;14.00;7.00
65556;PMS3003;52200;53.490;14.376;2023-03-01T12:48:45;20.20;15.00;8.00
65556;PMS3003;52200;53.490;14.376;2023-03-01T12:51:23;26.60;18.00;9.00
65556;PMS3003;52200;53.490;14.376;2023-03-01T12:53:51;21.80;16.80;8.60
65556;PMS3003;52200;53.490;14.376;2023-03-01T12:56:24;20.60;15.00;8.80
65556;PMS3003;52200;53.490;14.376;2023-03-01T12:59:04;19.80;12.80;7.00
65556;PMS3003;52200;53.490;14.376;2023-03-01T13:01:41;21.60;15.80;8.00
65556;PMS3003;52200;53.490;14.376;2023-03-01T13:09:25;22.60;18.20;8.80
65556;PMS3003;52200;53.490;14.376;2023-03-01T13:11:55;22.40;17.80;9.00
65556;PMS3003;52200;53.490;14.376;2023-03-01T13:16:47;23.80;17.20;8.00
65556;PMS3003;52200;53.490;14.376;2023-03-01T13:21:50;20.40;14.40;9.00
65556;PMS3003;52200;53.490;14.376;2023-03-01T13:29:45;23.60;17.60;9.80
65556;PMS3003;52200;53.490;14.376;2023-03-01T13:34:53;23.80;18.80;10.80
65556;PMS3003;52200;53.490;14.376;2023-03-01T13:37:27;25.80;19.40;9.20
65556;PMS3003;52200;53.490;14.376;2023-03-01T13:39:54;30.20;24.80;12.20
65556;PMS3003;52200;53.490;14.376;2023-03-01T13:42:41;22.20;18.40;8.60
65556;PMS3003;52200;53.490;14.376;2023-03-01T13:47:58;23.20;17.20;9.00
65556;PMS3003;52200;53.490;14.376;2023-03-01T13:50:31;22.80;17.80;8.40
65556;PMS3003;52200;53.490;14.376;2023-03-01T13:53:02;35.00;24.00;12.60
65556;PMS3003;52200;53.490;14.376;2023-03-01T13:58:19;21.20;18.00;8.80
65556;PMS3003;52200;53.490;14.376;2023-03-01T14:00:45;19.80;15.40;9.00
65556;PMS3003;52200;53.490;14.376;2023-03-01T14:03:13;22.50;15.00;8.00
65556;PMS3003;52200;53.490;14.376;2023-03-01T14:08:27;32.20;25.00;12.80
65556;PMS3003;52200;53.490;14.376;2023-03-01T14:10:57;27.00;18.40;10.00
65556;PMS3003;52200;53.490;14.376;2023-03-01T14:13:31;19.00;13.40;7.00
65556;PMS3003;52200;53.490;14.376;2023-03-01T14:21:41;17.60;12.60;6.80
65556;PMS3003;52200;53.490;14.376;2023-03-01T14:24:14;13.25;9.00;4.00
65556;PMS3003;52200;53.490;14.376;2023-03-01T14:26:42;16.20;9.00;3.20
65556;PMS3003;52200;53.490;14.376;2023-03-01T14:29:23;18.00;9.75;4.00
65556;PMS3003;52200;53.490;14.376;2023-03-01T14:31:52;17.80;11.80;7.00
65556;PMS3003;52200;53.490;14.376;2023-03-01T14:34:22;8.75;3.25;1.25
65556;PMS3003;52200;53.490;14.376;2023-03-01T14:36:48;7.00;2.60;1.00
65556;PMS3003;52200;53.490;14.376;2023-03-01T14:39:18;7.00;2.20;0.20
65556;PMS3003;52200;53.490;14.376;2023-03-01T14:41:46;7.80;3.40;1.00
65556;PMS3003;52200;53.490;14.376;2023-03-01T14:44:14;7.00;2.00;1.00
65556;PMS3003;52200;53.490;14.376;2023-03-01T14:46:44;7.20;2.00;0.00
65556;PMS3003;52200;53.490;14.376;2023-03-01T14:49:17;7.80;2.00;0.00
65556;PMS3003;52200;53.490;14.376;2023-03-01T14:51:50;7.00;2.00;1.00
65556;PMS3003;52200;53.490;14.376;2023-03-01T14:54:20;8.20;3.40;1.00
65556;PMS3003;52200;53.490;14.376;2023-03-01T14:56:58;6.20;2.00;0.60
65556;PMS3003;52200;53.490;14.376;2023-03-01T14:59:25;8.00;3.00;1.40
65556;PMS3003;52200;53.490;14.376;2023-03-01T15:01:51;6.60;2.00;0.40
65556;PMS3003;52200;53.490;14.376;2023-03-01T15:04:20;7.60;2.00;1.20
65556;PMS3003;52200;53.490;14.376;2023-03-01T15:06:50;8.60;2.00;0.80
65556;PMS3003;52200;53.490;14.376;2023-03-01T15:09:17;7.60;2.00;1.00
65556;PMS3003;52200;53.490;14.376;2023-03-01T15:11:42;6.00;2.00;0.00
65556;PMS3003;52200;53.490;14.376;2023-03-01T15:14:28;6.00;2.00;0.00
65556;PMS3003;52200;53.490;14.376;2023-03-01T15:17:04;6.60;2.60;1.00
65556;PMS3003;52200;53.490;14.376;2023-03-01T15:19:30;8.50;3.25;1.00
65556;PMS3003;52200;53.490;14.376;2023-03-01T15:21:55;7.50;1.75;1.25
65556;PMS3003;52200;53.490;14.376;2023-03-01T15:24:24;7.40;2.80;2.00
65556;PMS3003;52200;53.490;14.376;2023-03-01T15:27:01;7.40;2.40;1.00
65556;PMS3003;52200;53.490;14.376;2023-03-01T15:29:32;8.00;4.00;2.00
65556;PMS3003;52200;53.490;14.376;2023-03-01T15:32:06;6.60;2.00;0.00
65556;PMS3003;52200;53.490;14.376;2023-03-01T15:34:50;8.20;4.20;1.80
65556;PMS3003;52200;53.490;14.376;2023-03-01T15:39:59;8.80;3.40;1.20
65556;PMS3003;52200;53.490;14.376;2023-03-01T15:47:40;7.60;2.40;1.00
65556;PMS3003;52200;53.490;14.376;2023-03-01T15:53:06;8.40;3.00;1.00
65556;PMS3003;52200;53.490;14.376;2023-03-01T15:55:36;10.80;6.80;3.00
65556;PMS3003;52200;53.490;14.376;2023-03-01T15:58:03;11.80;7.60;3.00
65556;PMS3003;52200;53.490;14.376;2023-03-01T16:00:29;12.80;7.00;3.60
65556;PMS3003;52200;53.490;14.376;2023-03-01T16:02:54;13.25;9.25;4.00
65556;PMS3003;52200;53.490;14.376;2023-03-01T16:05:33;12.75;8.00;3.00
65556;PMS3003;52200;53.490;14.376;2023-03-01T16:07:59;11.00;5.00;3.00
65556;PMS3003;52200;53.490;14.376;2023-03-01T16:10:25;15.80;8.00;2.20
65556;PMS3003;52200;53.490;14.376;2023-03-01T16:12:51;27.00;21.80;12.40
65556;PMS3003;52200;53.490;14.376;2023-03-01T16:15:21;34.00;27.25;16.00
65556;PMS3003;52200;53.490;14.376;2023-03-01T16:17:59;36.80;28.60;15.40